Unicom:                    122.8

AWOS:                  118.275

Elevation           1458’ MSL

TPA:                   2500’ MSL

06/24:         5003’ L   75’ W

PAPI:       06/Left     24/Left

(Operate lights on unicom freq.)

Traffic Pattern: Left

Beacon: Sunset to Sunrise

Windsock: yes, lighted

Segmented Circle: No

 

Cleveland Center: 126.72/291.65

FSS: Altoona

[Source: ADDS]
METAR
KFKL 211456Z AUTO 20012KT 10SM FEW019 16/12 A2995 RMK AO2 SLP139 T01610122 58008 =
KFKL 211120Z 2112/2212 20011KT P6SM SCT100 FM211900 20010G18KT P6SM VCTS BKN050CB TEMPO 2120/2123 21015G25KT 4SM TSRA BKN035CB FM212300 26009G17KT P6SM -SHRA BKN035 FM220300 26008KT P6SM BKN020 FM220800 26006KT P6SM OVC005
TAF
KFKL 211120Z 2112/2212 20011KT P6SM SCT100 FM211900 20010G18KT P6SM VCTS BKN050CB TEMPO 2120/2123 21015G25KT 4SM TSRA BKN035CB FM212300 26009G17KT P6SM -SHRA BKN035 FM220300 26008KT P6SM BKN020 FM220800 26006KT P6SM OVC005 =
[Source: ADDS]
METAR
KDUJ 211453Z AUTO 22010G15KT 10SM SCT027 SCT034 17/11 A2997 RMK AO2 SLP146 T01670111 58006 =
KDUJ 211120Z 2112/2212 22006KT P6SM SCT100 FM211500 21010G18KT P6SM BKN100 FM212000 20010G18KT P6SM VCTS BKN050CB TEMPO 2121/2124 21015G25KT 4SM TSRA BKN035CB FM220000 26009G17KT P6SM -SHRA BKN035 FM220300 26008KT P6SM BKN020 FM220800 26006KT P6SM OVC005
TAF
KDUJ 211120Z 2112/2212 22006KT P6SM SCT100 FM211500 21010G18KT P6SM BKN100 FM212000 20010G18KT P6SM VCTS BKN050CB TEMPO 2121/2124 21015G25KT 4SM TSRA BKN035CB FM220000 26009G17KT P6SM -SHRA BKN035 FM220300 26008KT P6SM BKN020 FM220800 26006KT P6SM OVC005 =

Airport Information. 

Runway Length: 5003ft x 75ft

Runways 6/24

Traffic Pattern: Left

PAPI’s: 2 light PAPI on left of both 6/24

TPA: 2500 msl

Field Elevation: 1458 msl

Surface: Asphalt

Beacon: Operates Sunset-Sunrise

Pilot Controlled Lighting:  yes 122.8

 

Fuel:

Jet-A w/prist

100 LL

Center point fueling available upon request.

 

Unicom Frequency: 122.8

AWOS Frequency: 118.27  (814-227-2899)

 

Cleveland Center: 126.72 (440-774-0442)

 

GPS Approach Plates for 6/24 download here: http://www.airnav.com/airport/KAXQ

[Source: ADDS]
METAR
KFKL 211456Z AUTO 20012KT 10SM FEW019 16/12 A2995 RMK AO2 SLP139 T01610122 58008 =
KFKL 211120Z 2112/2212 20011KT P6SM SCT100 FM211900 20010G18KT P6SM VCTS BKN050CB TEMPO 2120/2123 21015G25KT 4SM TSRA BKN035CB FM212300 26009G17KT P6SM -SHRA BKN035 FM220300 26008KT P6SM BKN020 FM220800 26006KT P6SM OVC005
TAF
KFKL 211120Z 2112/2212 20011KT P6SM SCT100 FM211900 20010G18KT P6SM VCTS BKN050CB TEMPO 2120/2123 21015G25KT 4SM TSRA BKN035CB FM212300 26009G17KT P6SM -SHRA BKN035 FM220300 26008KT P6SM BKN020 FM220800 26006KT P6SM OVC005 =
[Source: ADDS]
METAR
KDUJ 211453Z AUTO 22010G15KT 10SM SCT027 SCT034 17/11 A2997 RMK AO2 SLP146 T01670111 58006 =
KDUJ 211120Z 2112/2212 22006KT P6SM SCT100 FM211500 21010G18KT P6SM BKN100 FM212000 20010G18KT P6SM VCTS BKN050CB TEMPO 2121/2124 21015G25KT 4SM TSRA BKN035CB FM220000 26009G17KT P6SM -SHRA BKN035 FM220300 26008KT P6SM BKN020 FM220800 26006KT P6SM OVC005
TAF
KDUJ 211120Z 2112/2212 22006KT P6SM SCT100 FM211500 21010G18KT P6SM BKN100 FM212000 20010G18KT P6SM VCTS BKN050CB TEMPO 2121/2124 21015G25KT 4SM TSRA BKN035CB FM220000 26009G17KT P6SM -SHRA BKN035 FM220300 26008KT P6SM BKN020 FM220800 26006KT P6SM OVC005 =